Time,TemperatureF,DewpointF,PressureIn,WindDirection,WindDirectionDegrees,WindSpeedMPH,WindSpeedGustMPH,Humidity,HourlyPrecipIn,Conditions,Clouds,dailyrainin,SoftwareType,DateUTC
2013-02-13 00:00:00,28.0,23.8,29.97,WNW,283,2.0,7.0,84,0.00,,---,0.00,VWS V14.00,2013-02-13 05:00:00,
2013-02-13 00:30:00,27.9,24.0,29.96,WNW,298,4.0,9.0,85,0.00,,---,0.00,VWS V14.00,2013-02-13 05:30:00,
2013-02-13 01:00:00,27.9,24.0,29.96,WNW,303,1.0,6.0,85,0.00,,---,0.00,VWS V14.00,2013-02-13 06:00:00,
2013-02-13 01:30:00,27.6,24.0,29.96,NW,318,2.0,7.0,86,0.00,,---,0.00,VWS V14.00,2013-02-13 06:30:00,
2013-02-13 02:00:00,27.5,23.6,29.95,North,356,2.0,6.0,85,0.00,,---,0.00,VWS V14.00,2013-02-13 07:00:00,
2013-02-13 02:30:00,27.5,23.6,29.95,NW,315,3.0,5.0,85,0.00,,---,0.00,VWS V14.00,2013-02-13 07:30:00,
2013-02-13 03:00:00,27.4,23.2,29.94,NW,312,3.0,6.0,84,0.00,,---,0.00,VWS V14.00,2013-02-13 08:00:00,
2013-02-13 03:30:00,27.2,23.0,29.93,WNW,300,2.0,6.0,84,0.00,,---,0.00,VWS V14.00,2013-02-13 08:30:00,
2013-02-13 04:00:00,26.9,23.0,29.92,WNW,285,2.0,7.0,85,0.00,,---,0.00,VWS V14.00,2013-02-13 09:00:00,
2013-02-13 04:30:00,25.5,22.2,29.91,ESE,120,0.0,5.0,87,0.00,,---,0.00,VWS V14.00,2013-02-13 09:30:00,
2013-02-13 05:00:00,24.2,21.4,29.90,ESE,120,0.0,0.0,89,0.00,,---,0.00,VWS V14.00,2013-02-13 10:00:00,
2013-02-13 05:30:00,23.1,20.6,29.90,ESE,120,0.0,0.0,90,0.00,,---,0.00,VWS V14.00,2013-02-13 10:30:00,
2013-02-13 06:00:00,22.3,20.3,29.88,ESE,120,0.0,0.0,92,0.00,,---,0.00,VWS V14.00,2013-02-13 11:00:00,
2013-02-13 06:30:00,21.5,19.5,29.88,ESE,120,0.0,0.0,92,0.00,,---,0.00,VWS V14.00,2013-02-13 11:30:00,
2013-02-13 07:00:00,21.4,19.7,29.87,ESE,120,0.0,0.0,93,0.00,,---,0.00,VWS V14.00,2013-02-13 12:00:00,
2013-02-13 07:30:00,21.0,19.5,29.87,ESE,120,0.0,0.0,94,0.00,,---,0.00,VWS V14.00,2013-02-13 12:30:00,
2013-02-13 08:00:00,20.8,19.4,29.87,ESE,120,0.0,0.0,94,0.00,,---,0.00,VWS V14.00,2013-02-13 13:00:00,
2013-02-13 08:30:00,21.8,20.3,29.86,ESE,120,0.0,0.0,94,0.00,,---,0.00,VWS V14.00,2013-02-13 13:30:00,
2013-02-13 09:00:00,23.4,21.9,29.86,ESE,120,0.0,0.0,94,0.00,,---,0.00,VWS V14.00,2013-02-13 14:00:00,
2013-02-13 09:30:00,26.0,23.7,29.87,SSW,197,0.0,2.0,91,0.00,,---,0.00,VWS V14.00,2013-02-13 14:30:00,
2013-02-13 10:00:00,28.6,25.2,29.88,SSE,160,3.0,6.0,87,0.00,,---,0.00,VWS V14.00,2013-02-13 15:00:00,
2013-02-13 10:30:00,30.3,25.8,29.87,SSE,154,1.0,6.0,83,0.00,,---,0.00,VWS V14.00,2013-02-13 15:30:00,
2013-02-13 11:00:00,30.8,26.3,29.86,West,274,1.0,4.0,83,0.00,,---,0.00,VWS V14.00,2013-02-13 16:00:00,
2013-02-13 11:30:00,33.4,27.6,29.85,SW,217,1.0,5.0,79,0.00,,---,0.00,VWS V14.00,2013-02-13 16:30:00,
2013-02-13 12:00:00,34.6,27.5,29.84,WSW,255,5.0,5.0,75,0.00,,---,0.00,VWS V14.00,2013-02-13 17:00:00,
2013-02-13 12:30:00,36.5,27.7,29.83,WSW,257,2.0,7.0,70,0.00,,---,0.00,VWS V14.00,2013-02-13 17:30:00,
2013-02-13 13:00:00,37.3,28.1,29.82,SSW,212,5.0,11.0,69,0.00,,---,0.00,VWS V14.00,2013-02-13 18:00:00,
2013-02-13 13:30:00,38.4,28.8,29.80,SW,228,3.0,11.0,68,0.00,,---,0.00,VWS V14.00,2013-02-13 18:30:00,
2013-02-13 14:00:00,40.0,29.9,29.78,SW,218,0.0,11.0,67,0.00,,---,0.00,VWS V14.00,2013-02-13 19:00:00,
2013-02-13 14:30:00,41.6,30.3,29.77,SSW,197,5.0,10.0,64,0.00,,---,0.00,VWS V14.00,2013-02-13 19:30:00,
2013-02-13 15:00:00,41.1,31.0,29.77,WSW,248,1.0,13.0,67,0.00,,---,0.00,VWS V14.00,2013-02-13 20:00:00,
2013-02-13 15:30:00,41.8,31.3,29.76,WSW,255,6.0,12.0,66,0.00,,---,0.00,VWS V14.00,2013-02-13 20:30:00,
2013-02-13 16:00:00,41.6,31.1,29.76,WSW,246,4.0,12.0,66,0.00,,---,0.00,VWS V14.00,2013-02-13 21:00:00,
2013-02-13 16:30:00,42.0,31.9,29.76,WSW,250,2.0,10.0,67,0.00,,---,0.00,VWS V14.00,2013-02-13 21:30:00,
2013-02-13 17:00:00,42.1,32.0,29.76,West,263,10.0,13.0,67,0.00,,---,0.00,VWS V14.00,2013-02-13 22:00:00,
2013-02-13 17:30:00,42.1,32.3,29.77,SW,229,2.0,10.0,68,0.00,,---,0.00,VWS V14.00,2013-02-13 22:30:00,
2013-02-13 18:00:00,41.3,32.3,29.77,SW,218,2.0,5.0,70,0.00,,---,0.00,VWS V14.00,2013-02-13 23:00:00,
2013-02-13 18:30:00,38.8,31.2,29.78,SSW,201,0.0,3.0,74,0.00,,---,0.00,VWS V14.00,2013-02-13 23:30:00,
2013-02-13 19:00:00,36.8,30.6,29.78,SSE,150,1.0,1.0,78,0.00,,---,0.00,VWS V14.00,2013-02-14 00:00:00,
2013-02-13 19:30:00,35.6,30.0,29.79,SE,142,0.0,1.0,80,0.00,,---,0.00,VWS V14.00,2013-02-14 00:30:00,
2013-02-13 20:00:00,34.5,29.6,29.80,SE,128,0.0,0.0,82,0.00,,---,0.00,VWS V14.00,2013-02-14 01:00:00,
2013-02-13 20:30:00,33.6,29.3,29.80,SE,131,0.0,0.0,84,0.00,,---,0.00,VWS V14.00,2013-02-14 01:30:00,
2013-02-13 21:00:00,33.2,29.2,29.80,SE,129,1.0,2.0,85,0.00,,---,0.00,VWS V14.00,2013-02-14 02:00:00,
2013-02-13 21:30:00,32.9,29.5,29.80,SE,126,0.0,2.0,87,0.00,,---,0.00,VWS V14.00,2013-02-14 02:30:00,
2013-02-13 22:00:00,32.5,29.6,29.81,SE,134,0.0,3.0,89,0.00,,---,0.00,VWS V14.00,2013-02-14 03:00:00,
2013-02-13 22:30:00,31.9,28.8,29.81,SE,136,0.0,2.0,88,0.00,,---,0.00,VWS V14.00,2013-02-14 03:30:00,
2013-02-13 23:00:00,30.9,28.3,29.81,ESE,120,0.0,2.0,90,0.00,,---,0.00,VWS V14.00,2013-02-14 04:00:00,
2013-02-13 23:30:00,29.8,27.5,29.81,ESE,115,1.0,1.0,91,0.00,,---,0.00,VWS V14.00,2013-02-14 04:30:00,